Time;durP1;ratioP1;P1;durP2;ratioP2;P2;SDS_P1;SDS_P2;PMS_P1;PMS_P2;Temp;Humidity;BMP_temperature;BMP_pressure;BME280_temperature;BME280_humidity;BME280_pressure;Samples;Min_cycle;Max_cycle;Signal;HPM_P1;HPM_P2
2023/12/10 00:02:21;;;;;;;20.25;2.45;;;8.80;99.90;;;;;;4987288;28;20036;-76
2023/12/10 00:04:47;;;;;;;10.32;2.05;;;8.70;99.90;;;;;;4986645;28;20092;-76
2023/12/10 00:07:13;;;;;;;9.88;2.25;;;8.70;99.90;;;;;;4983163;28;20036;-75
2023/12/10 00:09:38;;;;;;;11.55;2.05;;;8.70;99.90;;;;;;4987644;28;20054;-76
2023/12/10 00:12:04;;;;;;;11.85;2.13;;;8.80;99.90;;;;;;4993458;28;20038;-77
2023/12/10 00:14:30;;;;;;;13.70;1.80;;;8.80;99.90;;;;;;5005869;28;20057;-75
2023/12/10 00:16:56;;;;;;;10.00;3.15;;;8.80;99.90;;;;;;5004235;28;20293;-75
2023/12/10 00:19:22;;;;;;;12.15;2.33;;;8.90;99.90;;;;;;5004134;28;20061;-75
2023/12/10 00:21:47;;;;;;;14.98;2.45;;;8.90;99.90;;;;;;5003674;28;20106;-76
2023/12/10 00:24:13;;;;;;;11.52;2.05;;;9.00;99.90;;;;;;4985510;28;20101;-77
2023/12/10 00:26:39;;;;;;;14.50;1.92;;;9.00;99.90;;;;;;5001127;28;20061;-74
2023/12/10 00:29:05;;;;;;;11.13;1.52;;;9.00;99.90;;;;;;5003301;28;20319;-75
2023/12/10 00:31:30;;;;;;;16.15;2.83;;;9.00;99.90;;;;;;5003987;28;20025;-77
2023/12/10 00:33:56;;;;;;;14.98;2.42;;;9.10;99.90;;;;;;5003158;28;20034;-76
2023/12/10 00:36:22;;;;;;;16.08;2.40;;;9.10;99.90;;;;;;5003721;28;20034;-75
2023/12/10 00:38:48;;;;;;;18.02;2.83;;;9.30;99.90;;;;;;5003482;28;20080;-76
2023/12/10 00:41:15;;;;;;;15.65;2.15;;;9.20;99.90;;;;;;5001673;28;20034;-76
2023/12/10 00:43:41;;;;;;;10.80;2.15;;;9.20;99.90;;;;;;4984214;28;20029;-75
2023/12/10 00:46:08;;;;;;;14.63;2.35;;;9.20;99.90;;;;;;4983691;28;20045;-76
2023/12/10 00:48:35;;;;;;;20.23;4.18;;;9.30;99.90;;;;;;4994896;28;20061;-75
2023/12/10 00:51:01;;;;;;;15.30;1.88;;;9.30;99.90;;;;;;4969536;28;20030;-74
2023/12/10 00:53:26;;;;;;;12.90;2.40;;;9.30;99.90;;;;;;5003822;28;20089;-75
2023/12/10 00:55:52;;;;;;;17.13;3.30;;;9.40;99.90;;;;;;5003167;28;20092;-76
2023/12/10 00:58:18;;;;;;;18.45;3.10;;;9.30;99.90;;;;;;5003799;28;20038;-74
2023/12/10 01:00:44;;;;;;;14.23;2.80;;;9.40;99.90;;;;;;4998984;28;20084;-74
2023/12/10 01:03:10;;;;;;;16.67;3.38;;;9.40;99.90;;;;;;5002794;28;20030;-76
2023/12/10 01:05:36;;;;;;;16.95;4.07;;;9.40;99.90;;;;;;5003203;28;20366;-74
2023/12/10 01:08:03;;;;;;;20.50;4.35;;;9.40;99.90;;;;;;4985870;28;20026;-74
2023/12/10 01:10:28;;;;;;;17.90;3.00;;;9.40;99.90;;;;;;5003570;28;20049;-75
2023/12/10 01:12:54;;;;;;;22.33;3.08;;;9.30;99.90;;;;;;5003014;28;20308;-74
2023/12/10 01:15:29;;;;;;;23.60;3.65;;;9.40;99.90;;;;;;5003425;28;20037;-74
2023/12/10 01:18:01;;;;;;;22.50;3.50;;;9.50;99.90;;;;;;5000579;28;20188;-74
2023/12/10 01:20:31;;;;;;;20.27;3.10;;;9.60;99.90;;;;;;4983975;28;20054;-74
2023/12/10 01:22:57;;;;;;;16.90;3.40;;;9.50;99.90;;;;;;4983670;28;20043;-74
2023/12/10 01:25:27;;;;;;;19.60;3.63;;;9.50;99.90;;;;;;4950519;28;20193;-76
2023/12/10 01:27:53;;;;;;;14.95;3.40;;;9.30;99.90;;;;;;4965750;28;20019;-74
2023/12/10 01:30:25;;;;;;;23.10;3.67;;;9.40;99.90;;;;;;4983791;28;20027;-75
2023/12/10 08:29:25;;;;;;;12.18;2.10;;;8.80;99.90;;;;;;4980357;23;20050;-72
2023/12/10 08:31:51;;;;;;;10.27;1.75;;;8.80;99.90;;;;;;4983074;28;20034;-72
2023/12/10 08:34:16;;;;;;;10.85;1.70;;;8.80;99.90;;;;;;4979457;28;20027;-72
2023/12/10 08:36:42;;;;;;;11.15;1.70;;;8.90;99.90;;;;;;4965743;28;20087;-72
2023/12/10 08:39:08;;;;;;;13.98;2.10;;;8.90;99.90;;;;;;4983547;28;20098;-75
2023/12/10 08:41:34;;;;;;;13.50;2.42;;;9.00;99.90;;;;;;4983186;28;20042;-72
2023/12/10 08:44:00;;;;;;;13.27;2.72;;;9.00;99.90;;;;;;4983873;28;20295;-71
2023/12/10 08:46:26;;;;;;;10.38;1.83;;;9.10;99.90;;;;;;4982991;28;20089;-73
2023/12/10 08:48:51;;;;;;;11.65;1.98;;;9.20;99.80;;;;;;4983183;28;20062;-72
2023/12/10 08:51:17;;;;;;;9.68;2.20;;;9.20;99.90;;;;;;4964401;28;20073;-73
2023/12/10 08:53:43;;;;;;;10.98;1.70;;;9.30;99.30;;;;;;4965298;28;20030;-72
2023/12/10 08:56:11;;;;;;;9.32;1.77;;;9.30;99.60;;;;;;4982444;28;20027;-72
2023/12/10 08:58:37;;;;;;;7.20;1.65;;;9.20;99.30;;;;;;4974446;28;20034;-74
2023/12/10 09:01:05;;;;;;;10.27;1.63;;;9.10;99.40;;;;;;4966254;28;20304;-74
2023/12/10 09:03:31;;;;;;;10.80;2.10;;;9.10;99.30;;;;;;4982434;28;20042;-75
2023/12/10 09:05:58;;;;;;;13.88;2.15;;;9.20;99.10;;;;;;4965810;28;20031;-73
2023/12/10 09:08:26;;;;;;;8.40;1.67;;;9.20;99.00;;;;;;4963734;28;20026;-72
2023/12/10 09:10:52;;;;;;;9.75;2.08;;;9.20;99.10;;;;;;4983599;28;20057;-73
2023/12/10 09:13:19;;;;;;;14.77;2.00;;;9.30;98.90;;;;;;4982225;28;20027;-73
2023/12/10 09:15:44;;;;;;;9.68;2.10;;;9.40;98.90;;;;;;4982807;28;20031;-73
2023/12/10 09:18:10;;;;;;;10.80;2.05;;;9.50;98.80;;;;;;4965981;28;20062;-74
2023/12/10 09:20:42;;;;;;;6.88;1.65;;;9.70;98.20;;;;;;4982823;28;20090;-72
2023/12/10 09:23:34;;;;;;;7.50;1.58;;;10.00;97.80;;;;;;4984722;28;20022;-71
2023/12/10 09:26:00;;;;;;;9.38;2.03;;;10.20;97.20;;;;;;4970599;28;20058;-72
2023/12/10 09:28:29;;;;;;;7.57;1.50;;;10.60;96.50;;;;;;4997454;28;20054;-73
2023/12/10 09:30:57;;;;;;;;;;;10.80;96.20;;;;;;5007306;28;20038;-72
2023/12/10 09:33:26;;;;;;;11.05;1.80;;;11.00;96.20;;;;;;5006377;28;20204;-73
2023/12/10 09:35:52;;;;;;;11.05;2.13;;;11.20;95.90;;;;;;5006337;28;20069;-72
2023/12/10 09:38:17;;;;;;;11.18;1.63;;;11.20;95.40;;;;;;5005885;28;20029;-74
2023/12/10 09:40:49;;;;;;;9.23;1.50;;;11.00;95.20;;;;;;5007082;28;20037;-73
2023/12/10 09:43:15;;;;;;;9.93;1.70;;;10.90;95.40;;;;;;5000750;28;20050;-72
2023/12/10 09:45:43;;;;;;;9.57;1.67;;;10.90;96.20;;;;;;5005422;28;20077;-73
2023/12/10 09:48:12;;;;;;;;;;;10.80;95.80;;;;;;5007311;28;20030;-72
2023/12/10 09:50:40;;;;;;;12.80;1.80;;;10.70;96.30;;;;;;5006061;28;19960;-74
2023/12/10 09:53:09;;;;;;;8.02;1.63;;;10.70;96.50;;;;;;5005140;28;20034;-75
2023/12/10 09:55:41;;;;;;;10.52;1.60;;;10.80;96.60;;;;;;5005808;28;20022;-73
2023/12/10 09:58:07;;;;;;;8.15;1.40;;;10.70;96.10;;;;;;4987273;28;20019;-73
2023/12/10 10:00:32;;;;;;;9.05;1.75;;;10.70;96.40;;;;;;5002710;28;20112;-72
2023/12/10 10:03:04;;;;;;;8.30;1.33;;;10.70;96.30;;;;;;5006200;28;20022;-72
2023/12/10 10:05:32;;;;;;;8.80;1.10;;;10.80;96.30;;;;;;5005942;28;20026;-74
2023/12/10 10:08:07;;;;;;;6.82;1.50;;;10.80;96.20;;;;;;5005787;28;20077;-73
2023/12/10 10:10:32;;;;;;;6.22;1.30;;;10.80;96.20;;;;;;4987973;28;20229;-73
2023/12/10 10:12:59;;;;;;;9.73;1.35;;;10.80;96.20;;;;;;5005862;28;20057;-73
2023/12/10 10:15:30;;;;;;;8.55;1.52;;;10.70;96.00;;;;;;5003281;28;20018;-74
2023/12/10 10:17:57;;;;;;;5.97;1.05;;;10.70;96.50;;;;;;5005837;28;20264;-73
2023/12/10 10:20:26;;;;;;;10.15;1.63;;;10.60;96.80;;;;;;5005295;28;20230;-74
2023/12/10 10:22:54;;;;;;;7.07;1.38;;;10.50;96.70;;;;;;5006345;28;20034;-73
2023/12/10 10:25:20;;;;;;;8.07;1.20;;;10.50;97.10;;;;;;5005399;28;20219;-74
2023/12/10 10:27:47;;;;;;;7.07;1.25;;;10.40;97.30;;;;;;5003266;28;20081;-75
2023/12/10 10:30:13;;;;;;;8.63;1.52;;;10.50;97.30;;;;;;4997819;28;20049;-72
2023/12/10 10:32:40;;;;;;;7.63;1.17;;;10.50;97.10;;;;;;5001331;28;20101;-73
2023/12/10 10:35:09;;;;;;;12.02;2.80;;;10.30;97.60;;;;;;5003794;28;20063;-73
2023/12/10 10:37:37;;;;;;;7.90;1.30;;;10.30;97.60;;;;;;5004510;28;20343;-73
2023/12/10 10:40:03;;;;;;;9.10;1.30;;;10.20;99.00;;;;;;5004777;28;21020;-73
2023/12/10 10:42:32;;;;;;;8.73;1.63;;;10.10;99.50;;;;;;5004514;28;20053;-73
2023/12/10 10:44:58;;;;;;;8.02;1.50;;;10.10;98.90;;;;;;5004699;28;20299;-74
2023/12/10 10:47:27;;;;;;;5.97;1.40;;;10.10;98.80;;;;;;5004170;28;20022;-73
2023/12/10 10:50:01;;;;;;;10.32;1.50;;;10.20;98.70;;;;;;5003727;28;20315;-74
2023/12/10 10:52:31;;;;;;;10.32;1.83;;;10.30;98.40;;;;;;5001242;28;20044;-78
2023/12/10 10:54:58;;;;;;;10.85;1.40;;;10.30;98.20;;;;;;5004958;28;20053;-75
2023/12/10 10:57:37;;;;;;;7.80;1.38;;;10.30;98.00;;;;;;5004406;28;20208;-73
2023/12/10 11:00:18;;;;;;;8.38;1.80;;;10.50;97.90;;;;;;5003530;28;20030;-73
2023/12/10 11:02:46;;;;;;;7.13;1.50;;;10.70;97.70;;;;;;4985679;28;20332;-76
2023/12/10 11:05:39;;;;;;;13.20;1.55;;;10.60;97.80;;;;;;4985923;28;20025;-72
2023/12/10 11:08:08;;;;;;;6.07;1.17;;;10.50;97.30;;;;;;4986392;28;20105;-74
2023/12/10 11:10:43;;;;;;;6.85;1.60;;;10.60;97.30;;;;;;5004413;28;20038;-75
2023/12/10 11:13:09;;;;;;;8.13;1.40;;;10.70;97.10;;;;;;5004815;28;20030;-74
2023/12/10 11:15:35;;;;;;;11.70;1.58;;;10.70;96.90;;;;;;5004419;28;20077;-75
2023/12/10 11:18:02;;;;;;;9.80;1.55;;;10.60;97.10;;;;;;5004909;28;20085;-75
2023/12/10 11:20:50;;;;;;;8.07;1.48;;;10.70;96.90;;;;;;5004477;28;20041;-75
2023/12/10 11:23:17;;;;;;;6.80;1.48;;;10.60;96.80;;;;;;5004993;28;20030;-74
2023/12/10 11:25:44;;;;;;;8.98;1.30;;;10.60;97.00;;;;;;4985060;28;20038;-74
2023/12/10 11:28:18;;;;;;;6.07;1.25;;;10.70;97.10;;;;;;4985086;28;20243;-74
2023/12/10 11:30:45;;;;;;;7.80;1.50;;;10.80;96.70;;;;;;4984900;28;20134;-73
2023/12/10 11:33:14;;;;;;;9.52;1.50;;;10.90;96.60;;;;;;4985718;28;20034;-74
2023/12/10 11:35:41;;;;;;;9.27;1.50;;;10.90;96.40;;;;;;4992081;28;20026;-74
2023/12/10 11:38:10;;;;;;;11.20;2.00;;;10.90;96.60;;;;;;5007370;28;20026;-73
2023/12/10 11:40:36;;;;;;;9.95;2.00;;;10.90;96.70;;;;;;5005320;28;20038;-73
2023/12/10 11:43:03;;;;;;;10.07;1.88;;;10.70;97.20;;;;;;5001444;28;20022;-74
2023/12/10 11:45:28;;;;;;;10.30;1.92;;;10.70;97.20;;;;;;5003894;28;20030;-74
2023/12/10 11:47:57;;;;;;;12.32;1.95;;;10.70;97.70;;;;;;5004087;28;20034;-75
2023/12/10 11:50:24;;;;;;;6.97;1.23;;;10.70;97.80;;;;;;5004674;28;20026;-73
2023/12/10 11:52:50;;;;;;;9.48;2.08;;;10.50;97.90;;;;;;5004222;28;20061;-74
2023/12/10 11:55:16;;;;;;;9.43;1.85;;;10.70;98.30;;;;;;5004624;28;20324;-74
2023/12/10 11:57:42;;;;;;;11.18;1.70;;;10.70;98.20;;;;;;5003979;28;20045;-74
2023/12/10 12:00:13;;;;;;;8.23;1.77;;;10.80;97.90;;;;;;4999568;28;20022;-74
2023/12/10 12:02:43;;;;;;;9.52;1.80;;;11.10;97.40;;;;;;4984106;28;20040;-75
2023/12/10 12:05:14;;;;;;;8.07;2.25;;;11.30;97.10;;;;;;4985027;28;20035;-74
2023/12/10 12:07:41;;;;;;;9.75;1.75;;;11.50;96.70;;;;;;4984581;28;20339;-73
2023/12/10 12:10:07;;;;;;;8.50;1.70;;;11.50;96.70;;;;;;4984863;28;20074;-73
2023/12/10 12:12:38;;;;;;;7.30;1.70;;;11.50;96.50;;;;;;4984167;28;20025;-73
2023/12/10 12:15:04;;;;;;;14.05;2.08;;;11.60;96.60;;;;;;4984572;28;20030;-73
2023/12/10 12:17:30;;;;;;;8.23;1.67;;;11.80;95.70;;;;;;4993059;28;20082;-73
2023/12/10 12:19:55;;;;;;;9.10;1.70;;;11.80;95.50;;;;;;5004062;28;20069;-74
2023/12/10 12:22:21;;;;;;;10.27;2.10;;;11.60;95.90;;;;;;4986212;28;20030;-75
2023/12/10 12:24:47;;;;;;;10.18;1.60;;;11.60;96.30;;;;;;5003456;28;20022;-75
2023/12/10 12:27:13;;;;;;;10.88;2.00;;;11.60;96.10;;;;;;5003851;28;20169;-75
2023/12/10 12:29:38;;;;;;;6.45;2.00;;;11.50;95.70;;;;;;5003440;28;20082;-74
2023/12/10 12:32:05;;;;;;;11.18;2.25;;;11.50;96.40;;;;;;5002142;28;20085;-74
2023/12/10 12:34:31;;;;;;;7.43;1.90;;;11.50;96.00;;;;;;4984827;28;20107;-73
2023/12/10 12:36:57;;;;;;;10.38;2.00;;;11.50;95.90;;;;;;5001258;28;20320;-74
2023/12/10 12:39:24;;;;;;;8.73;1.77;;;11.50;95.60;;;;;;5003376;28;20387;-75
2023/12/10 12:41:50;;;;;;;9.50;1.90;;;11.40;95.90;;;;;;5003182;28;20101;-75
2023/12/10 12:44:16;;;;;;;8.73;1.42;;;11.40;96.00;;;;;;5003748;28;20049;-74
2023/12/10 12:46:42;;;;;;;7.60;1.65;;;11.30;95.90;;;;;;5002773;28;20282;-73
2023/12/10 12:49:09;;;;;;;8.30;1.80;;;11.30;96.00;;;;;;4998820;28;20085;-73
2023/12/10 12:51:36;;;;;;;7.53;1.67;;;11.20;95.80;;;;;;5002850;28;20026;-75
2023/12/10 12:54:02;;;;;;;5.13;1.40;;;11.20;95.50;;;;;;5003284;28;20025;-76
2023/12/10 12:56:31;;;;;;;10.85;1.83;;;11.20;95.70;;;;;;5002626;28;20030;-74
2023/12/10 12:58:57;;;;;;;10.80;1.50;;;11.10;95.80;;;;;;5003395;28;20030;-73
2023/12/10 13:01:22;;;;;;;11.98;1.92;;;11.00;95.90;;;;;;5003111;28;20033;-74
2023/12/10 13:03:48;;;;;;;8.45;2.33;;;11.00;95.90;;;;;;5002620;28;20034;-75
2023/12/10 13:06:16;;;;;;;9.75;1.52;;;10.80;95.80;;;;;;5003471;28;20038;-73
2023/12/10 13:08:42;;;;;;;11.07;1.90;;;10.90;96.00;;;;;;4987912;28;20058;-74
2023/12/10 13:11:08;;;;;;;9.38;1.38;;;10.80;96.10;;;;;;4966617;28;20217;-75
2023/12/10 13:13:34;;;;;;;9.18;2.00;;;10.80;96.00;;;;;;4966193;28;20086;-75
2023/12/10 13:16:02;;;;;;;9.02;1.50;;;10.80;95.80;;;;;;4983966;28;20081;-75
2023/12/10 13:18:28;;;;;;;10.52;1.77;;;10.80;95.90;;;;;;4983451;28;20313;-74
2023/12/10 13:20:54;;;;;;;8.77;1.80;;;10.80;95.80;;;;;;4983549;28;20039;-75
2023/12/10 13:23:21;;;;;;;9.73;1.73;;;10.80;95.90;;;;;;4966373;28;20052;-74
2023/12/10 13:25:50;;;;;;;9.75;1.55;;;10.80;95.90;;;;;;4994416;28;20026;-74
2023/12/10 13:28:25;;;;;;;7.13;1.60;;;10.80;95.90;;;;;;5002917;28;20149;-73
2023/12/10 13:30:57;;;;;;;7.88;2.00;;;10.70;95.80;;;;;;4984766;28;20030;-75
2023/12/10 13:33:26;;;;;;;5.63;1.38;;;10.70;95.80;;;;;;4985428;28;20216;-74
2023/12/10 13:35:51;;;;;;;6.78;1.05;;;10.70;95.90;;;;;;5002545;28;20022;-75
2023/12/10 13:38:17;;;;;;;7.30;1.40;;;10.70;95.80;;;;;;4969454;28;20029;-74
2023/12/10 13:40:43;;;;;;;7.65;1.52;;;10.60;96.10;;;;;;5001238;28;20211;-76
2023/12/10 13:43:09;;;;;;;10.27;2.35;;;10.60;96.10;;;;;;4998805;28;20018;-74
2023/12/10 13:45:35;;;;;;;10.50;1.80;;;10.60;96.10;;;;;;5002366;28;20053;-73
2023/12/10 13:48:02;;;;;;;10.05;1.80;;;10.60;96.10;;;;;;5002799;28;20026;-75
2023/12/10 13:50:27;;;;;;;7.47;1.85;;;10.60;96.10;;;;;;4985523;28;20388;-75
2023/12/10 13:52:53;;;;;;;7.22;1.85;;;10.50;96.20;;;;;;5002152;28;20083;-73
2023/12/10 13:55:19;;;;;;;7.45;1.65;;;10.50;96.20;;;;;;5002702;28;20034;-75
2023/12/10 13:57:45;;;;;;;8.45;1.58;;;10.50;96.20;;;;;;4984999;28;20228;-73
2023/12/10 14:00:14;;;;;;;11.18;2.63;;;10.50;96.20;;;;;;4973242;28;20042;-73
2023/12/10 14:02:39;;;;;;;8.40;2.58;;;10.50;96.30;;;;;;4982773;28;20058;-74
2023/12/10 14:05:09;;;;;;;7.90;1.65;;;10.50;96.20;;;;;;4966076;28;20208;-73
2023/12/10 14:07:35;;;;;;;9.25;1.50;;;10.50;96.20;;;;;;4965490;28;20098;-75
2023/12/10 14:10:01;;;;;;;7.93;1.50;;;10.50;96.20;;;;;;4984435;28;20220;-73
2023/12/10 14:12:27;;;;;;;9.13;1.60;;;10.60;96.00;;;;;;4986558;28;20026;-74
2023/12/10 14:14:53;;;;;;;6.82;1.92;;;10.60;96.20;;;;;;4986523;28;20039;-73
2023/12/10 14:17:19;;;;;;;9.68;1.70;;;10.60;96.20;;;;;;5002515;28;20029;-74
2023/12/10 14:19:44;;;;;;;7.35;1.98;;;10.50;96.30;;;;;;5005883;28;20030;-74
2023/12/10 14:22:10;;;;;;;9.63;1.65;;;10.50;96.40;;;;;;4988638;28;20327;-74
2023/12/10 14:24:36;;;;;;;7.60;1.95;;;10.50;96.20;;;;;;5005703;28;20022;-74
2023/12/10 14:27:02;;;;;;;12.15;1.55;;;10.40;96.50;;;;;;5006289;28;20359;-74
2023/12/10 14:29:27;;;;;;;8.48;1.83;;;10.40;96.20;;;;;;5005576;28;20061;-73
2023/12/10 14:31:53;;;;;;;10.57;1.63;;;10.40;96.40;;;;;;5005529;28;20240;-75
2023/12/10 14:34:19;;;;;;;9.35;2.42;;;10.40;96.30;;;;;;4991564;28;20331;-73
2023/12/10 14:36:44;;;;;;;9.88;1.95;;;10.40;96.40;;;;;;5001487;28;20100;-73
2023/12/10 14:39:10;;;;;;;8.80;2.17;;;10.30;96.40;;;;;;5006000;28;20022;-74
2023/12/10 14:41:36;;;;;;;8.10;1.88;;;10.30;96.40;;;;;;5005078;28;20023;-74
2023/12/10 14:44:02;;;;;;;11.48;2.08;;;10.40;96.60;;;;;;4988351;28;20026;-73
2023/12/10 14:46:28;;;;;;;9.40;1.90;;;10.30;96.50;;;;;;5005540;28;20049;-73
2023/12/10 14:48:57;;;;;;;10.07;1.98;;;10.30;96.60;;;;;;5004117;28;20219;-73
2023/12/10 14:51:22;;;;;;;10.05;3.15;;;10.20;96.70;;;;;;5002529;28;20268;-74
2023/12/10 14:53:48;;;;;;;15.65;2.30;;;10.20;96.80;;;;;;5005353;28;20050;-73
2023/12/10 14:56:14;;;;;;;10.73;2.80;;;10.20;96.80;;;;;;4988009;28;20086;-74
2023/12/10 14:58:39;;;;;;;12.85;3.55;;;10.20;96.80;;;;;;5004982;28;20101;-73
2023/12/10 15:01:06;;;;;;;11.18;2.50;;;10.10;97.10;;;;;;4988165;28;20022;-73
2023/12/10 15:03:32;;;;;;;11.23;3.45;;;10.00;97.30;;;;;;5005198;28;20034;-74
2023/12/10 15:05:58;;;;;;;11.50;3.10;;;10.00;97.20;;;;;;5004883;28;20101;-74
2023/12/10 15:08:24;;;;;;;13.02;2.88;;;10.00;97.40;;;;;;4996560;28;20089;-74
2023/12/10 15:10:50;;;;;;;10.10;3.25;;;9.90;97.60;;;;;;4985358;28;20057;-75
2023/12/10 15:13:16;;;;;;;10.25;4.20;;;9.80;97.90;;;;;;4985599;28;20336;-74
2023/12/10 15:15:42;;;;;;;12.63;4.32;;;9.70;97.90;;;;;;4967925;28;20027;-74
2023/12/10 15:18:08;;;;;;;9.80;1.75;;;9.70;98.20;;;;;;4985488;28;20031;-73
2023/12/10 15:20:34;;;;;;;11.70;1.90;;;9.70;98.30;;;;;;4985199;28;20038;-74
2023/12/10 15:23:00;;;;;;;10.43;1.70;;;9.70;98.30;;;;;;4967849;28;20077;-74
2023/12/10 15:25:25;;;;;;;11.45;2.72;;;9.70;98.40;;;;;;4985433;28;20331;-74
2023/12/10 15:27:51;;;;;;;8.38;2.08;;;9.60;98.70;;;;;;4998122;28;20093;-74
2023/12/10 15:30:17;;;;;;;10.25;2.05;;;9.60;98.60;;;;;;5004333;28;20040;-75
2023/12/10 15:32:44;;;;;;;12.27;2.13;;;9.60;98.70;;;;;;5004046;28;20133;-74
2023/12/10 15:35:10;;;;;;;12.82;2.35;;;9.60;98.80;;;;;;4987514;28;20049;-74
2023/12/10 15:37:36;;;;;;;9.50;1.85;;;9.60;98.70;;;;;;5004467;28;20030;-75
2023/12/10 15:40:02;;;;;;;10.82;1.83;;;9.60;98.80;;;;;;5003714;28;20114;-75
2023/12/10 15:42:29;;;;;;;12.93;2.28;;;9.60;98.90;;;;;;5004630;28;20232;-74
2023/12/10 15:44:55;;;;;;;15.30;2.70;;;9.50;99.10;;;;;;4999233;28;20014;-74
2023/12/10 15:47:21;;;;;;;9.48;2.25;;;9.50;99.20;;;;;;5004676;28;20320;-75
2023/12/10 15:49:47;;;;;;;7.97;2.53;;;9.50;99.30;;;;;;5003806;28;20042;-75
2023/12/10 15:52:16;;;;;;;9.27;2.55;;;9.40;99.30;;;;;;5004926;28;20292;-74
2023/12/10 15:54:42;;;;;;;14.02;2.78;;;9.40;99.80;;;;;;5004085;28;20038;-73
2023/12/10 15:57:09;;;;;;;9.07;1.88;;;9.40;99.60;;;;;;5004512;28;20034;-75
2023/12/10 15:59:37;;;;;;;9.63;2.95;;;9.40;99.70;;;;;;5004395;28;20049;-74
2023/12/10 16:02:03;;;;;;;17.10;2.40;;;9.30;99.70;;;;;;4988290;28;20054;-73
2023/12/10 16:04:32;;;;;;;13.15;2.55;;;9.40;99.80;;;;;;4985629;28;20359;-73
2023/12/10 16:07:00;;;;;;;;;;;9.40;99.70;;;;;;4987331;28;20028;-74
2023/12/10 16:09:26;;;;;;;13.52;2.08;;;9.30;99.70;;;;;;4967365;28;20184;-75
2023/12/10 16:11:52;;;;;;;13.07;2.85;;;9.30;99.80;;;;;;4984062;28;20031;-75
2023/12/10 16:14:17;;;;;;;9.90;2.38;;;9.30;99.90;;;;;;4984598;28;20033;-75
2023/12/10 16:16:43;;;;;;;13.68;2.70;;;9.20;99.90;;;;;;4967208;28;20415;-76
2023/12/10 16:19:09;;;;;;;12.25;2.28;;;9.10;99.90;;;;;;4992883;28;20045;-75
2023/12/10 16:21:35;;;;;;;13.35;3.38;;;9.20;99.90;;;;;;4986845;28;20030;-74
2023/12/10 16:24:01;;;;;;;13.88;2.40;;;9.20;99.90;;;;;;5003510;28;20097;-74
2023/12/10 16:26:36;;;;;;;10.50;2.05;;;9.20;99.90;;;;;;5003695;28;20114;-75
2023/12/10 16:29:03;;;;;;;10.23;2.60;;;9.20;99.90;;;;;;5003575;28;20050;-74
2023/12/10 16:31:35;;;;;;;10.40;2.20;;;9.30;99.40;;;;;;5004280;28;20042;-74
2023/12/10 16:34:00;;;;;;;14.00;2.50;;;9.40;99.30;;;;;;4983340;28;20595;-74
2023/12/10 16:36:27;;;;;;;9.90;2.00;;;9.40;99.00;;;;;;4997611;28;20099;-75
2023/12/10 16:38:52;;;;;;;12.23;2.55;;;9.30;99.10;;;;;;5003014;28;20034;-74
2023/12/10 16:41:21;;;;;;;13.52;2.42;;;9.30;99.10;;;;;;5003904;28;20048;-76
2023/12/10 16:43:49;;;;;;;10.25;1.92;;;9.30;99.20;;;;;;5002803;28;20023;-74
2023/12/10 16:46:15;;;;;;;10.52;2.30;;;9.30;98.80;;;;;;5003594;28;20327;-74
2023/12/10 16:48:43;;;;;;;12.23;2.53;;;9.30;98.60;;;;;;5003678;28;20030;-75
2023/12/10 16:51:09;;;;;;;10.65;2.03;;;9.30;98.60;;;;;;4996963;28;20018;-75
2023/12/10 16:53:35;;;;;;;9.38;2.25;;;9.30;98.50;;;;;;4984105;28;20185;-74
2023/12/10 16:56:08;;;;;;;11.73;2.22;;;9.30;98.50;;;;;;4983518;28;20224;-75
2023/12/10 16:58:34;;;;;;;11.52;2.58;;;9.40;98.20;;;;;;4983778;28;20034;-74
2023/12/10 17:01:00;;;;;;;11.88;2.20;;;9.40;98.20;;;;;;4965972;28;20065;-74
2023/12/10 17:03:26;;;;;;;11.98;2.20;;;9.50;97.90;;;;;;4966642;28;20042;-74
2023/12/10 17:05:51;;;;;;;10.65;1.83;;;9.40;98.00;;;;;;4983020;28;20035;-74
2023/12/10 17:08:17;;;;;;;11.52;2.60;;;9.40;97.80;;;;;;4996837;28;20030;-74
2023/12/10 17:10:46;;;;;;;10.98;2.00;;;9.40;97.80;;;;;;5002936;28;20244;-74
2023/12/10 17:13:11;;;;;;;9.80;1.90;;;9.40;97.60;;;;;;5003054;28;20026;-73
2023/12/10 17:15:37;;;;;;;10.25;2.50;;;9.40;97.50;;;;;;5003187;28;20228;-74
2023/12/10 17:18:03;;;;;;;9.70;2.28;;;9.40;97.30;;;;;;5002394;28;20323;-74
2023/12/10 17:20:28;;;;;;;13.65;2.40;;;9.50;97.00;;;;;;4985452;28;20050;-73
2023/12/10 17:22:54;;;;;;;10.02;1.63;;;9.50;96.70;;;;;;4981995;28;20030;-75
2023/12/10 17:25:20;;;;;;;8.95;2.08;;;9.60;96.50;;;;;;4983472;28;20440;-74
2023/12/10 17:27:46;;;;;;;9.38;2.10;;;9.60;96.30;;;;;;4982564;28;20359;-74
2023/12/10 17:30:12;;;;;;;7.88;1.83;;;9.60;96.20;;;;;;4983388;28;20042;-74
2023/12/10 17:32:37;;;;;;;7.40;1.65;;;9.70;95.80;;;;;;4983562;28;20212;-76
2023/12/10 17:35:04;;;;;;;8.95;1.80;;;9.70;95.70;;;;;;4967684;28;20050;-75
2023/12/10 17:37:29;;;;;;;8.32;1.50;;;9.80;95.60;;;;;;4986032;28;20081;-75
2023/12/10 17:39:55;;;;;;;12.90;1.80;;;9.80;95.60;;;;;;4985093;28;20247;-74
2023/12/10 17:42:23;;;;;;;9.50;1.80;;;9.80;95.40;;;;;;4998137;28;20034;-74
2023/12/10 17:44:49;;;;;;;11.40;1.92;;;9.90;95.20;;;;;;4986339;28;20502;-74
2023/12/10 17:47:15;;;;;;;15.38;2.50;;;9.90;95.10;;;;;;5007189;28;20060;-75
2023/12/10 17:49:41;;;;;;;10.68;2.08;;;10.00;94.90;;;;;;5006660;28;20216;-74
2023/12/10 17:52:06;;;;;;;8.88;1.52;;;10.00;94.70;;;;;;5005823;28;20038;-75
2023/12/10 17:54:32;;;;;;;11.70;3.00;;;10.00;94.50;;;;;;5006601;28;20069;-75
2023/12/10 17:56:58;;;;;;;25.95;10.13;;;10.10;94.30;;;;;;5005929;28;20212;-75
2023/12/10 17:59:23;;;;;;;10.45;2.45;;;10.10;94.10;;;;;;4994424;28;20035;-74
2023/12/10 18:01:49;;;;;;;9.43;2.00;;;10.10;94.00;;;;;;4986456;28;20252;-75
2023/12/10 18:04:15;;;;;;;9.80;2.00;;;10.10;93.80;;;;;;4969981;28;20035;-75
2023/12/10 18:06:40;;;;;;;11.32;1.90;;;10.10;93.60;;;;;;4986721;28;20058;-73
2023/12/10 18:09:06;;;;;;;8.80;2.00;;;10.20;93.20;;;;;;4986239;28;20441;-74
2023/12/10 18:11:32;;;;;;;8.85;1.85;;;10.20;93.20;;;;;;4986625;28;20031;-73
2023/12/10 18:13:58;;;;;;;9.55;2.33;;;10.20;93.30;;;;;;4986293;28;20098;-73
2023/12/10 18:16:24;;;;;;;8.38;1.33;;;10.20;93.00;;;;;;4990979;28;20022;-76
2023/12/10 18:18:51;;;;;;;10.13;1.75;;;10.30;93.10;;;;;;5005516;28;20049;-75
2023/12/10 18:21:17;;;;;;;5.70;1.20;;;10.30;92.70;;;;;;4988931;28;20121;-74
2023/12/10 18:23:51;;;;;;;8.27;1.95;;;10.30;92.50;;;;;;5006275;28;20351;-75
2023/12/10 18:26:17;;;;;;;5.18;1.05;;;10.30;92.30;;;;;;5005861;28;20202;-74
2023/12/10 18:28:43;;;;;;;6.35;1.55;;;10.40;91.70;;;;;;4988531;28;20053;-74
2023/12/10 18:31:10;;;;;;;5.78;1.13;;;10.40;91.80;;;;;;5006346;28;20026;-75
2023/12/10 18:33:36;;;;;;;5.75;1.80;;;10.40;91.50;;;;;;4987017;28;20342;-76
2023/12/10 18:36:05;;;;;;;7.93;2.05;;;10.40;91.50;;;;;;4998283;28;20030;-74
2023/12/10 18:38:34;;;;;;;6.13;1.17;;;10.40;91.20;;;;;;5006045;28;20036;-75
2023/12/10 18:41:03;;;;;;;7.72;2.35;;;10.40;91.00;;;;;;4988237;28;20325;-76
2023/12/10 18:43:29;;;;;;;6.35;1.27;;;10.50;90.70;;;;;;4988297;28;20368;-75
2023/12/10 18:45:55;;;;;;;6.90;1.38;;;10.50;90.40;;;;;;5005406;28;20022;-75
2023/12/10 18:48:23;;;;;;;6.30;1.42;;;10.50;90.50;;;;;;5005870;28;20018;-74
2023/12/10 18:50:49;;;;;;;;;;;10.50;90.40;;;;;;4988320;28;20265;-74
2023/12/10 18:53:18;;;;;;;7.68;1.73;;;10.50;90.20;;;;;;5001126;28;19902;-74
2023/12/10 18:55:44;;;;;;;5.63;1.42;;;10.50;90.20;;;;;;5005235;28;20026;-74
2023/12/10 18:58:10;;;;;;;5.45;0.90;;;10.50;89.90;;;;;;5004910;28;20041;-73
2023/12/10 19:00:36;;;;;;;6.72;1.10;;;10.60;89.50;;;;;;5005629;28;20045;-74
2023/12/10 19:03:02;;;;;;;6.28;1.25;;;10.60;89.20;;;;;;5005057;28;20038;-75
2023/12/10 19:05:27;;;;;;;4.25;1.00;;;10.70;89.20;;;;;;5005649;28;20061;-75
2023/12/10 19:07:53;;;;;;;7.18;1.48;;;10.60;89.10;;;;;;5004755;28;20064;-74
2023/12/10 19:10:19;;;;;;;6.65;1.05;;;10.60;88.70;;;;;;4997212;28;20189;-74
2023/12/10 19:12:45;;;;;;;7.47;1.52;;;10.60;89.10;;;;;;4986224;28;20317;-75
2023/12/10 19:15:11;;;;;;;5.40;1.10;;;10.60;88.50;;;;;;4984833;28;20046;-75
2023/12/10 19:17:36;;;;;;;7.00;1.42;;;10.60;87.70;;;;;;5005286;28;20057;-75
2023/12/10 19:20:20;;;;;;;8.75;1.58;;;10.60;88.10;;;;;;5004756;28;20081;-74
2023/12/10 19:22:46;;;;;;;7.05;1.15;;;10.60;87.90;;;;;;5004928;28;20054;-74
2023/12/10 19:25:12;;;;;;;4.43;0.93;;;10.60;87.10;;;;;;4986872;28;20224;-73
2023/12/10 19:27:41;;;;;;;7.10;1.17;;;10.60;87.30;;;;;;5004775;28;20231;-76
2023/12/10 19:30:06;;;;;;;;;;;10.60;86.90;;;;;;5002251;28;20061;-74
2023/12/10 19:32:32;;;;;;;;;;;10.60;86.40;;;;;;4968480;28;19906;-75
2023/12/10 19:34:57;;;;;;;;;;;10.60;86.70;;;;;;4986439;28;20065;-76
2023/12/10 19:37:23;;;;;;;;;;;10.60;86.10;;;;;;5005354;28;19906;-75
2023/12/10 19:39:49;;;;;;;;;;;10.70;86.10;;;;;;5004986;28;19945;-75
2023/12/10 19:42:14;;;;;;;;;;;10.60;86.40;;;;;;5004425;28;19906;-74
2023/12/10 19:44:40;;;;;;;;;;;10.50;86.50;;;;;;5005144;28;19949;-75
2023/12/10 19:47:06;;;;;;;;;;;10.50;85.40;;;;;;5004728;28;19905;-73